sensor_id;sensor_type;location;lat;lon;timestamp;P1;durP1;ratioP1;P2;durP2;ratioP2
76377;SDS011;65200;49.500;8.654;2022-11-20T00:00:03;20.42;;;11.43;;
76377;SDS011;65200;49.500;8.654;2022-11-20T00:02:30;24.08;;;12.95;;
76377;SDS011;65200;49.500;8.654;2022-11-20T00:04:56;20.85;;;12.65;;
76377;SDS011;65200;49.500;8.654;2022-11-20T00:07:22;21.98;;;11.55;;
76377;SDS011;65200;49.500;8.654;2022-11-20T00:09:49;24.55;;;12.95;;
76377;SDS011;65200;49.500;8.654;2022-11-20T00:12:15;23.02;;;12.65;;
76377;SDS011;65200;49.500;8.654;2022-11-20T00:14:41;17.15;;;10.90;;
76377;SDS011;65200;49.500;8.654;2022-11-20T00:17:09;20.02;;;11.43;;
76377;SDS011;65200;49.500;8.654;2022-11-20T00:19:35;20.75;;;12.07;;
76377;SDS011;65200;49.500;8.654;2022-11-20T00:22:01;22.38;;;12.27;;
76377;SDS011;65200;49.500;8.654;2022-11-20T00:24:27;24.35;;;13.57;;
76377;SDS011;65200;49.500;8.654;2022-11-20T00:26:54;22.45;;;12.38;;
76377;SDS011;65200;49.500;8.654;2022-11-20T00:29:20;25.38;;;13.43;;
76377;SDS011;65200;49.500;8.654;2022-11-20T00:31:46;28.13;;;13.63;;
76377;SDS011;65200;49.500;8.654;2022-11-20T00:34:14;24.60;;;13.90;;
76377;SDS011;65200;49.500;8.654;2022-11-20T00:36:40;26.02;;;14.95;;
76377;SDS011;65200;49.500;8.654;2022-11-20T00:39:07;23.77;;;12.70;;
76377;SDS011;65200;49.500;8.654;2022-11-20T00:41:33;23.17;;;12.85;;
76377;SDS011;65200;49.500;8.654;2022-11-20T00:43:59;19.95;;;12.25;;
76377;SDS011;65200;49.500;8.654;2022-11-20T00:46:26;20.92;;;12.65;;
76377;SDS011;65200;49.500;8.654;2022-11-20T00:48:52;23.48;;;13.30;;
76377;SDS011;65200;49.500;8.654;2022-11-20T00:51:21;24.98;;;14.05;;
76377;SDS011;65200;49.500;8.654;2022-11-20T00:53:48;26.38;;;14.10;;
76377;SDS011;65200;49.500;8.654;2022-11-20T00:56:15;20.38;;;12.77;;
76377;SDS011;65200;49.500;8.654;2022-11-20T00:58:42;19.77;;;11.93;;
76377;SDS011;65200;49.500;8.654;2022-11-20T01:01:09;17.42;;;10.50;;
76377;SDS011;65200;49.500;8.654;2022-11-20T01:03:37;21.80;;;12.95;;
76377;SDS011;65200;49.500;8.654;2022-11-20T01:06:04;18.48;;;11.55;;
76377;SDS011;65200;49.500;8.654;2022-11-20T01:08:33;19.90;;;11.57;;
76377;SDS011;65200;49.500;8.654;2022-11-20T01:10:59;16.98;;;9.63;;
76377;SDS011;65200;49.500;8.654;2022-11-20T01:13:26;20.98;;;10.85;;
76377;SDS011;65200;49.500;8.654;2022-11-20T01:16:06;16.80;;;10.52;;
76377;SDS011;65200;49.500;8.654;2022-11-20T01:18:33;16.40;;;10.75;;
76377;SDS011;65200;49.500;8.654;2022-11-20T01:21:02;21.63;;;12.27;;
76377;SDS011;65200;49.500;8.654;2022-11-20T01:23:33;21.15;;;11.90;;
76377;SDS011;65200;49.500;8.654;2022-11-20T01:26:00;19.23;;;12.27;;
76377;SDS011;65200;49.500;8.654;2022-11-20T01:28:27;19.65;;;11.95;;
76377;SDS011;65200;49.500;8.654;2022-11-20T01:30:54;22.83;;;11.90;;
76377;SDS011;65200;49.500;8.654;2022-11-20T01:33:20;20.77;;;11.98;;
76377;SDS011;65200;49.500;8.654;2022-11-20T01:35:46;20.98;;;12.70;;
76377;SDS011;65200;49.500;8.654;2022-11-20T01:38:12;19.73;;;11.60;;
76377;SDS011;65200;49.500;8.654;2022-11-20T01:40:43;24.50;;;13.43;;
76377;SDS011;65200;49.500;8.654;2022-11-20T01:43:11;24.85;;;15.10;;
76377;SDS011;65200;49.500;8.654;2022-11-20T01:45:52;22.90;;;12.35;;
76377;SDS011;65200;49.500;8.654;2022-11-20T01:48:22;26.67;;;14.02;;
76377;SDS011;65200;49.500;8.654;2022-11-20T01:50:49;26.13;;;14.30;;
76377;SDS011;65200;49.500;8.654;2022-11-20T01:53:17;25.23;;;13.18;;
76377;SDS011;65200;49.500;8.654;2022-11-20T01:55:46;30.95;;;13.85;;
76377;SDS011;65200;49.500;8.654;2022-11-20T01:58:13;25.23;;;13.07;;
76377;SDS011;65200;49.500;8.654;2022-11-20T02:00:40;27.33;;;14.00;;
76377;SDS011;65200;49.500;8.654;2022-11-20T02:03:08;24.45;;;12.88;;
76377;SDS011;65200;49.500;8.654;2022-11-20T02:05:36;23.25;;;12.35;;
76377;SDS011;65200;49.500;8.654;2022-11-20T02:08:03;21.65;;;13.25;;
76377;SDS011;65200;49.500;8.654;2022-11-20T02:10:30;21.48;;;12.07;;
76377;SDS011;65200;49.500;8.654;2022-11-20T02:12:58;24.80;;;13.55;;
76377;SDS011;65200;49.500;8.654;2022-11-20T02:15:42;20.25;;;12.02;;
76377;SDS011;65200;49.500;8.654;2022-11-20T02:18:08;21.50;;;11.82;;
76377;SDS011;65200;49.500;8.654;2022-11-20T02:20:35;20.10;;;12.48;;
76377;SDS011;65200;49.500;8.654;2022-11-20T02:23:02;20.92;;;10.93;;
76377;SDS011;65200;49.500;8.654;2022-11-20T02:25:32;20.85;;;11.90;;
76377;SDS011;65200;49.500;8.654;2022-11-20T02:27:59;18.90;;;11.60;;
76377;SDS011;65200;49.500;8.654;2022-11-20T02:30:26;18.20;;;10.32;;
76377;SDS011;65200;49.500;8.654;2022-11-20T02:32:52;24.02;;;12.40;;
76377;SDS011;65200;49.500;8.654;2022-11-20T02:35:39;24.55;;;13.18;;
76377;SDS011;65200;49.500;8.654;2022-11-20T02:38:05;21.65;;;11.18;;
76377;SDS011;65200;49.500;8.654;2022-11-20T02:40:33;20.90;;;11.77;;
76377;SDS011;65200;49.500;8.654;2022-11-20T02:42:59;21.75;;;12.50;;
76377;SDS011;65200;49.500;8.654;2022-11-20T02:45:25;23.83;;;13.30;;
76377;SDS011;65200;49.500;8.654;2022-11-20T02:47:52;23.73;;;14.77;;
76377;SDS011;65200;49.500;8.654;2022-11-20T02:50:18;24.65;;;12.63;;
76377;SDS011;65200;49.500;8.654;2022-11-20T02:52:45;21.63;;;11.13;;
76377;SDS011;65200;49.500;8.654;2022-11-20T02:55:11;20.33;;;10.90;;
76377;SDS011;65200;49.500;8.654;2022-11-20T02:57:39;23.63;;;11.73;;
76377;SDS011;65200;49.500;8.654;2022-11-20T03:00:06;27.48;;;12.27;;
76377;SDS011;65200;49.500;8.654;2022-11-20T03:02:32;23.13;;;11.30;;
76377;SDS011;65200;49.500;8.654;2022-11-20T03:04:59;21.85;;;12.52;;
76377;SDS011;65200;49.500;8.654;2022-11-20T03:07:25;20.83;;;11.30;;
76377;SDS011;65200;49.500;8.654;2022-11-20T03:09:51;23.85;;;11.02;;
76377;SDS011;65200;49.500;8.654;2022-11-20T03:12:18;17.48;;;10.18;;
76377;SDS011;65200;49.500;8.654;2022-11-20T03:14:45;15.55;;;9.18;;
76377;SDS011;65200;49.500;8.654;2022-11-20T03:17:12;13.93;;;8.73;;
76377;SDS011;65200;49.500;8.654;2022-11-20T03:19:38;16.40;;;9.07;;
76377;SDS011;65200;49.500;8.654;2022-11-20T03:22:04;13.10;;;8.82;;
76377;SDS011;65200;49.500;8.654;2022-11-20T03:24:30;15.00;;;9.48;;
76377;SDS011;65200;49.500;8.654;2022-11-20T03:26:57;14.93;;;8.45;;
76377;SDS011;65200;49.500;8.654;2022-11-20T03:29:23;14.35;;;9.07;;
76377;SDS011;65200;49.500;8.654;2022-11-20T03:31:50;18.45;;;9.55;;
76377;SDS011;65200;49.500;8.654;2022-11-20T03:34:17;19.20;;;9.15;;
76377;SDS011;65200;49.500;8.654;2022-11-20T03:36:43;16.83;;;8.98;;
76377;SDS011;65200;49.500;8.654;2022-11-20T03:39:09;15.85;;;9.38;;
76377;SDS011;65200;49.500;8.654;2022-11-20T03:41:36;13.13;;;8.68;;
76377;SDS011;65200;49.500;8.654;2022-11-20T03:44:04;14.32;;;9.88;;
76377;SDS011;65200;49.500;8.654;2022-11-20T03:46:30;14.15;;;8.15;;
76377;SDS011;65200;49.500;8.654;2022-11-20T03:48:58;15.98;;;8.93;;
76377;SDS011;65200;49.500;8.654;2022-11-20T03:51:26;12.98;;;8.50;;
76377;SDS011;65200;49.500;8.654;2022-11-20T03:53:53;13.38;;;8.13;;
76377;SDS011;65200;49.500;8.654;2022-11-20T03:56:22;11.35;;;7.75;;
76377;SDS011;65200;49.500;8.654;2022-11-20T03:58:48;12.90;;;8.23;;
76377;SDS011;65200;49.500;8.654;2022-11-20T04:01:15;16.85;;;8.57;;
76377;SDS011;65200;49.500;8.654;2022-11-20T04:03:42;14.75;;;9.80;;
76377;SDS011;65200;49.500;8.654;2022-11-20T04:06:11;18.83;;;9.43;;
76377;SDS011;65200;49.500;8.654;2022-11-20T04:08:38;17.92;;;9.10;;
76377;SDS011;65200;49.500;8.654;2022-11-20T04:11:08;17.48;;;9.73;;
76377;SDS011;65200;49.500;8.654;2022-11-20T04:13:34;17.30;;;9.40;;
76377;SDS011;65200;49.500;8.654;2022-11-20T04:16:00;17.45;;;9.98;;
76377;SDS011;65200;49.500;8.654;2022-11-20T04:18:27;18.40;;;9.27;;
76377;SDS011;65200;49.500;8.654;2022-11-20T04:20:53;16.23;;;9.43;;
76377;SDS011;65200;49.500;8.654;2022-11-20T04:23:20;18.30;;;9.25;;
76377;SDS011;65200;49.500;8.654;2022-11-20T04:25:47;18.23;;;10.00;;
76377;SDS011;65200;49.500;8.654;2022-11-20T04:28:13;17.95;;;10.30;;
76377;SDS011;65200;49.500;8.654;2022-11-20T04:30:39;25.67;;;13.30;;
76377;SDS011;65200;49.500;8.654;2022-11-20T04:33:06;23.25;;;12.18;;
76377;SDS011;65200;49.500;8.654;2022-11-20T04:35:33;28.17;;;12.50;;
76377;SDS011;65200;49.500;8.654;2022-11-20T04:37:59;24.65;;;12.98;;
76377;SDS011;65200;49.500;8.654;2022-11-20T04:40:27;25.05;;;13.43;;
76377;SDS011;65200;49.500;8.654;2022-11-20T04:42:54;28.00;;;13.93;;
76377;SDS011;65200;49.500;8.654;2022-11-20T04:45:20;26.58;;;12.68;;
76377;SDS011;65200;49.500;8.654;2022-11-20T04:47:47;23.77;;;12.63;;
76377;SDS011;65200;49.500;8.654;2022-11-20T04:50:13;20.80;;;11.52;;
76377;SDS011;65200;49.500;8.654;2022-11-20T04:52:39;22.92;;;11.25;;
76377;SDS011;65200;49.500;8.654;2022-11-20T04:55:06;22.92;;;12.52;;
76377;SDS011;65200;49.500;8.654;2022-11-20T04:57:33;20.63;;;11.43;;
76377;SDS011;65200;49.500;8.654;2022-11-20T05:00:00;19.85;;;10.68;;
76377;SDS011;65200;49.500;8.654;2022-11-20T05:02:26;22.65;;;12.55;;
76377;SDS011;65200;49.500;8.654;2022-11-20T05:04:52;23.67;;;15.32;;
76377;SDS011;65200;49.500;8.654;2022-11-20T05:07:19;20.45;;;11.80;;
76377;SDS011;65200;49.500;8.654;2022-11-20T05:09:45;21.77;;;11.40;;
76377;SDS011;65200;49.500;8.654;2022-11-20T05:12:11;21.27;;;11.48;;
76377;SDS011;65200;49.500;8.654;2022-11-20T05:14:39;24.23;;;12.50;;
76377;SDS011;65200;49.500;8.654;2022-11-20T05:17:05;22.75;;;12.25;;
76377;SDS011;65200;49.500;8.654;2022-11-20T05:19:31;21.40;;;11.30;;
76377;SDS011;65200;49.500;8.654;2022-11-20T05:21:57;22.73;;;11.63;;
76377;SDS011;65200;49.500;8.654;2022-11-20T05:24:24;20.15;;;11.60;;
76377;SDS011;65200;49.500;8.654;2022-11-20T05:26:50;19.85;;;10.50;;
76377;SDS011;65200;49.500;8.654;2022-11-20T05:29:16;24.50;;;12.80;;
76377;SDS011;65200;49.500;8.654;2022-11-20T05:31:44;19.90;;;10.88;;
76377;SDS011;65200;49.500;8.654;2022-11-20T05:34:10;20.60;;;10.32;;
76377;SDS011;65200;49.500;8.654;2022-11-20T05:36:36;18.23;;;10.00;;
76377;SDS011;65200;49.500;8.654;2022-11-20T05:39:03;26.20;;;13.15;;
76377;SDS011;65200;49.500;8.654;2022-11-20T05:41:29;22.50;;;11.45;;
76377;SDS011;65200;49.500;8.654;2022-11-20T05:43:55;23.95;;;11.60;;
76377;SDS011;65200;49.500;8.654;2022-11-20T05:46:22;24.40;;;11.70;;
76377;SDS011;65200;49.500;8.654;2022-11-20T05:48:49;24.52;;;12.35;;
76377;SDS011;65200;49.500;8.654;2022-11-20T05:51:17;25.63;;;13.27;;
76377;SDS011;65200;49.500;8.654;2022-11-20T05:53:43;26.85;;;12.65;;
76377;SDS011;65200;49.500;8.654;2022-11-20T05:56:11;25.80;;;11.88;;
76377;SDS011;65200;49.500;8.654;2022-11-20T05:58:37;29.35;;;13.40;;
76377;SDS011;65200;49.500;8.654;2022-11-20T06:01:04;19.65;;;11.90;;
76377;SDS011;65200;49.500;8.654;2022-11-20T06:03:31;20.73;;;11.13;;
76377;SDS011;65200;49.500;8.654;2022-11-20T06:05:59;19.55;;;10.45;;
76377;SDS011;65200;49.500;8.654;2022-11-20T06:08:25;20.85;;;11.30;;
76377;SDS011;65200;49.500;8.654;2022-11-20T06:10:52;22.70;;;10.88;;
76377;SDS011;65200;49.500;8.654;2022-11-20T06:13:18;20.33;;;13.32;;
76377;SDS011;65200;49.500;8.654;2022-11-20T06:15:47;17.85;;;10.43;;
76377;SDS011;65200;49.500;8.654;2022-11-20T06:18:14;19.35;;;11.25;;
76377;SDS011;65200;49.500;8.654;2022-11-20T06:20:40;25.73;;;14.20;;
76377;SDS011;65200;49.500;8.654;2022-11-20T06:23:07;24.25;;;13.43;;
76377;SDS011;65200;49.500;8.654;2022-11-20T06:25:36;21.85;;;12.02;;
76377;SDS011;65200;49.500;8.654;2022-11-20T06:28:03;23.95;;;12.27;;
76377;SDS011;65200;49.500;8.654;2022-11-20T06:30:29;25.92;;;12.73;;
76377;SDS011;65200;49.500;8.654;2022-11-20T06:32:55;23.10;;;12.57;;
76377;SDS011;65200;49.500;8.654;2022-11-20T06:35:21;23.48;;;13.05;;
76377;SDS011;65200;49.500;8.654;2022-11-20T06:39:17;21.27;;;11.77;;
76377;SDS011;65200;49.500;8.654;2022-11-20T06:41:43;21.17;;;11.93;;
76377;SDS011;65200;49.500;8.654;2022-11-20T06:44:10;22.50;;;11.60;;
76377;SDS011;65200;49.500;8.654;2022-11-20T06:46:36;27.48;;;12.80;;
76377;SDS011;65200;49.500;8.654;2022-11-20T06:49:02;22.85;;;13.27;;
76377;SDS011;65200;49.500;8.654;2022-11-20T06:51:29;22.42;;;11.98;;
76377;SDS011;65200;49.500;8.654;2022-11-20T06:53:56;18.70;;;10.93;;
76377;SDS011;65200;49.500;8.654;2022-11-20T06:56:23;22.77;;;11.90;;
76377;SDS011;65200;49.500;8.654;2022-11-20T06:58:50;21.73;;;12.32;;
76377;SDS011;65200;49.500;8.654;2022-11-20T07:01:16;22.25;;;11.98;;
76377;SDS011;65200;49.500;8.654;2022-11-20T07:03:43;19.63;;;11.70;;
76377;SDS011;65200;49.500;8.654;2022-11-20T07:06:10;22.90;;;12.23;;
76377;SDS011;65200;49.500;8.654;2022-11-20T07:08:36;23.65;;;13.45;;
76377;SDS011;65200;49.500;8.654;2022-11-20T07:11:04;30.02;;;14.68;;
76377;SDS011;65200;49.500;8.654;2022-11-20T07:13:31;23.63;;;13.18;;
76377;SDS011;65200;49.500;8.654;2022-11-20T07:16:00;23.02;;;13.32;;
76377;SDS011;65200;49.500;8.654;2022-11-20T07:18:27;23.02;;;12.57;;
76377;SDS011;65200;49.500;8.654;2022-11-20T07:20:53;22.13;;;12.18;;
76377;SDS011;65200;49.500;8.654;2022-11-20T07:23:19;19.35;;;11.68;;
76377;SDS011;65200;49.500;8.654;2022-11-20T07:25:46;20.00;;;12.18;;
76377;SDS011;65200;49.500;8.654;2022-11-20T07:28:13;26.27;;;12.68;;
76377;SDS011;65200;49.500;8.654;2022-11-20T07:30:41;23.75;;;13.20;;
76377;SDS011;65200;49.500;8.654;2022-11-20T07:33:07;25.63;;;12.85;;
76377;SDS011;65200;49.500;8.654;2022-11-20T07:35:33;20.35;;;12.63;;
76377;SDS011;65200;49.500;8.654;2022-11-20T07:38:00;18.45;;;11.80;;
76377;SDS011;65200;49.500;8.654;2022-11-20T07:40:27;24.95;;;13.18;;
76377;SDS011;65200;49.500;8.654;2022-11-20T07:42:54;21.73;;;11.93;;
76377;SDS011;65200;49.500;8.654;2022-11-20T07:45:21;25.00;;;12.88;;
76377;SDS011;65200;49.500;8.654;2022-11-20T07:47:49;21.52;;;11.27;;
76377;SDS011;65200;49.500;8.654;2022-11-20T07:50:17;21.52;;;11.00;;
76377;SDS011;65200;49.500;8.654;2022-11-20T07:52:43;23.48;;;13.65;;
76377;SDS011;65200;49.500;8.654;2022-11-20T07:55:10;24.65;;;12.10;;
76377;SDS011;65200;49.500;8.654;2022-11-20T07:57:36;24.52;;;13.75;;
76377;SDS011;65200;49.500;8.654;2022-11-20T08:00:03;27.45;;;14.40;;
76377;SDS011;65200;49.500;8.654;2022-11-20T08:02:30;21.70;;;12.40;;
76377;SDS011;65200;49.500;8.654;2022-11-20T08:04:57;20.30;;;12.73;;
76377;SDS011;65200;49.500;8.654;2022-11-20T08:07:23;24.67;;;12.90;;
76377;SDS011;65200;49.500;8.654;2022-11-20T08:09:50;25.98;;;14.48;;
76377;SDS011;65200;49.500;8.654;2022-11-20T08:12:16;20.80;;;13.05;;
76377;SDS011;65200;49.500;8.654;2022-11-20T08:15:00;22.63;;;12.50;;
76377;SDS011;65200;49.500;8.654;2022-11-20T08:17:27;19.15;;;12.32;;
76377;SDS011;65200;49.500;8.654;2022-11-20T08:19:53;19.20;;;13.10;;
76377;SDS011;65200;49.500;8.654;2022-11-20T08:22:22;19.27;;;12.02;;
76377;SDS011;65200;49.500;8.654;2022-11-20T08:24:48;20.85;;;11.63;;
76377;SDS011;65200;49.500;8.654;2022-11-20T08:27:14;17.35;;;11.25;;
76377;SDS011;65200;49.500;8.654;2022-11-20T08:29:41;21.45;;;12.82;;
76377;SDS011;65200;49.500;8.654;2022-11-20T08:32:07;22.27;;;11.35;;
76377;SDS011;65200;49.500;8.654;2022-11-20T08:34:33;22.00;;;11.80;;
76377;SDS011;65200;49.500;8.654;2022-11-20T08:37:01;22.00;;;12.65;;
76377;SDS011;65200;49.500;8.654;2022-11-20T08:39:28;19.42;;;10.77;;
76377;SDS011;65200;49.500;8.654;2022-11-20T08:41:55;17.52;;;10.45;;
76377;SDS011;65200;49.500;8.654;2022-11-20T08:44:21;22.48;;;11.40;;
76377;SDS011;65200;49.500;8.654;2022-11-20T08:46:47;18.40;;;12.07;;
76377;SDS011;65200;49.500;8.654;2022-11-20T08:49:13;18.58;;;10.93;;
76377;SDS011;65200;49.500;8.654;2022-11-20T08:51:40;21.65;;;11.50;;
76377;SDS011;65200;49.500;8.654;2022-11-20T08:54:07;17.25;;;10.00;;
76377;SDS011;65200;49.500;8.654;2022-11-20T08:56:35;17.05;;;11.18;;
76377;SDS011;65200;49.500;8.654;2022-11-20T08:59:01;20.80;;;11.48;;
76377;SDS011;65200;49.500;8.654;2022-11-20T09:01:28;19.77;;;10.65;;
76377;SDS011;65200;49.500;8.654;2022-11-20T09:03:54;20.80;;;12.45;;
76377;SDS011;65200;49.500;8.654;2022-11-20T09:06:21;22.70;;;12.93;;
76377;SDS011;65200;49.500;8.654;2022-11-20T09:08:48;19.65;;;11.80;;
76377;SDS011;65200;49.500;8.654;2022-11-20T09:11:17;25.05;;;13.63;;
76377;SDS011;65200;49.500;8.654;2022-11-20T09:13:44;27.65;;;13.43;;
76377;SDS011;65200;49.500;8.654;2022-11-20T09:16:11;25.08;;;12.38;;
76377;SDS011;65200;49.500;8.654;2022-11-20T09:18:37;32.08;;;15.85;;
76377;SDS011;65200;49.500;8.654;2022-11-20T09:21:04;27.58;;;14.30;;
76377;SDS011;65200;49.500;8.654;2022-11-20T09:23:31;37.38;;;15.75;;
76377;SDS011;65200;49.500;8.654;2022-11-20T09:25:58;28.42;;;15.50;;
76377;SDS011;65200;49.500;8.654;2022-11-20T09:28:27;32.95;;;17.13;;
76377;SDS011;65200;49.500;8.654;2022-11-20T09:32:50;47.70;;;25.40;;
76377;SDS011;65200;49.500;8.654;2022-11-20T09:35:16;45.92;;;22.40;;
76377;SDS011;65200;49.500;8.654;2022-11-20T09:37:43;39.40;;;18.85;;
76377;SDS011;65200;49.500;8.654;2022-11-20T09:40:11;42.20;;;21.25;;
76377;SDS011;65200;49.500;8.654;2022-11-20T09:42:43;43.22;;;19.35;;
76377;SDS011;65200;49.500;8.654;2022-11-20T09:45:14;46.25;;;19.77;;
76377;SDS011;65200;49.500;8.654;2022-11-20T09:47:46;53.15;;;22.90;;
76377;SDS011;65200;49.500;8.654;2022-11-20T09:50:23;42.85;;;21.30;;
76377;SDS011;65200;49.500;8.654;2022-11-20T09:52:55;47.63;;;19.50;;
76377;SDS011;65200;49.500;8.654;2022-11-20T09:55:25;38.88;;;18.08;;
76377;SDS011;65200;49.500;8.654;2022-11-20T09:57:52;40.78;;;18.45;;
76377;SDS011;65200;49.500;8.654;2022-11-20T10:00:18;40.50;;;19.83;;
76377;SDS011;65200;49.500;8.654;2022-11-20T10:02:47;44.42;;;21.17;;
76377;SDS011;65200;49.500;8.654;2022-11-20T10:05:15;46.17;;;21.52;;
76377;SDS011;65200;49.500;8.654;2022-11-20T10:07:46;42.90;;;19.73;;
76377;SDS011;65200;49.500;8.654;2022-11-20T10:10:14;46.83;;;21.92;;
76377;SDS011;65200;49.500;8.654;2022-11-20T10:12:44;48.22;;;21.90;;
76377;SDS011;65200;49.500;8.654;2022-11-20T10:15:17;51.13;;;21.55;;
76377;SDS011;65200;49.500;8.654;2022-11-20T10:17:51;39.50;;;20.13;;
76377;SDS011;65200;49.500;8.654;2022-11-20T10:20:22;37.05;;;18.60;;
76377;SDS011;65200;49.500;8.654;2022-11-20T10:22:54;39.72;;;19.05;;
76377;SDS011;65200;49.500;8.654;2022-11-20T10:25:25;46.28;;;20.52;;
76377;SDS011;65200;49.500;8.654;2022-11-20T10:27:56;40.03;;;20.05;;
76377;SDS011;65200;49.500;8.654;2022-11-20T10:30:26;42.38;;;19.83;;
76377;SDS011;65200;49.500;8.654;2022-11-20T10:32:56;44.38;;;21.40;;
76377;SDS011;65200;49.500;8.654;2022-11-20T10:35:26;38.72;;;17.98;;
76377;SDS011;65200;49.500;8.654;2022-11-20T10:37:58;35.72;;;19.45;;
76377;SDS011;65200;49.500;8.654;2022-11-20T10:40:28;41.30;;;17.08;;
76377;SDS011;65200;49.500;8.654;2022-11-20T10:42:57;40.42;;;19.02;;
76377;SDS011;65200;49.500;8.654;2022-11-20T10:45:36;36.67;;;17.73;;
76377;SDS011;65200;49.500;8.654;2022-11-20T10:48:08;34.90;;;18.52;;
76377;SDS011;65200;49.500;8.654;2022-11-20T10:50:36;34.03;;;17.35;;
76377;SDS011;65200;49.500;8.654;2022-11-20T10:53:08;40.90;;;17.42;;
76377;SDS011;65200;49.500;8.654;2022-11-20T10:55:40;40.72;;;19.63;;
76377;SDS011;65200;49.500;8.654;2022-11-20T10:58:09;42.85;;;23.55;;
76377;SDS011;65200;49.500;8.654;2022-11-20T11:00:37;27.55;;;16.40;;
76377;SDS011;65200;49.500;8.654;2022-11-20T11:03:07;30.30;;;16.95;;
76377;SDS011;65200;49.500;8.654;2022-11-20T11:05:42;39.08;;;23.23;;
76377;SDS011;65200;49.500;8.654;2022-11-20T11:08:12;31.60;;;18.45;;
76377;SDS011;65200;49.500;8.654;2022-11-20T11:10:39;31.67;;;16.85;;
76377;SDS011;65200;49.500;8.654;2022-11-20T11:13:18;35.83;;;18.98;;
76377;SDS011;65200;49.500;8.654;2022-11-20T11:15:44;43.00;;;22.98;;
76377;SDS011;65200;49.500;8.654;2022-11-20T11:18:11;38.60;;;20.50;;
76377;SDS011;65200;49.500;8.654;2022-11-20T11:20:37;40.88;;;20.65;;
76377;SDS011;65200;49.500;8.654;2022-11-20T11:23:04;33.55;;;19.00;;
76377;SDS011;65200;49.500;8.654;2022-11-20T11:25:32;39.50;;;20.42;;
76377;SDS011;65200;49.500;8.654;2022-11-20T11:28:00;37.72;;;18.10;;
76377;SDS011;65200;49.500;8.654;2022-11-20T11:30:27;31.92;;;19.02;;
76377;SDS011;65200;49.500;8.654;2022-11-20T11:33:04;43.70;;;21.50;;
76377;SDS011;65200;49.500;8.654;2022-11-20T11:35:31;44.47;;;22.80;;
76377;SDS011;65200;49.500;8.654;2022-11-20T11:38:02;40.58;;;19.95;;
76377;SDS011;65200;49.500;8.654;2022-11-20T11:40:29;40.17;;;23.45;;
76377;SDS011;65200;49.500;8.654;2022-11-20T11:42:58;33.35;;;20.30;;
76377;SDS011;65200;49.500;8.654;2022-11-20T11:45:25;32.47;;;19.92;;
76377;SDS011;65200;49.500;8.654;2022-11-20T11:47:51;30.27;;;18.55;;
76377;SDS011;65200;49.500;8.654;2022-11-20T11:50:18;32.70;;;19.80;;
76377;SDS011;65200;49.500;8.654;2022-11-20T11:52:46;28.40;;;17.33;;
76377;SDS011;65200;49.500;8.654;2022-11-20T11:55:15;32.83;;;17.63;;
76377;SDS011;65200;49.500;8.654;2022-11-20T12:00:12;20.88;;;15.00;;
76377;SDS011;65200;49.500;8.654;2022-11-20T12:02:54;22.25;;;15.07;;
76377;SDS011;65200;49.500;8.654;2022-11-20T12:05:24;24.95;;;14.07;;
76377;SDS011;65200;49.500;8.654;2022-11-20T12:07:52;22.63;;;14.90;;
76377;SDS011;65200;49.500;8.654;2022-11-20T12:10:21;24.00;;;14.65;;
76377;SDS011;65200;49.500;8.654;2022-11-20T12:12:50;26.60;;;15.60;;
76377;SDS011;65200;49.500;8.654;2022-11-20T12:15:22;27.70;;;17.23;;
76377;SDS011;65200;49.500;8.654;2022-11-20T12:17:49;28.40;;;16.60;;
76377;SDS011;65200;49.500;8.654;2022-11-20T12:20:15;23.13;;;16.65;;
76377;SDS011;65200;49.500;8.654;2022-11-20T12:22:43;29.77;;;18.75;;
76377;SDS011;65200;49.500;8.654;2022-11-20T12:25:16;30.02;;;21.88;;
76377;SDS011;65200;49.500;8.654;2022-11-20T12:30:10;23.30;;;14.07;;
76377;SDS011;65200;49.500;8.654;2022-11-20T12:32:43;24.10;;;16.45;;
76377;SDS011;65200;49.500;8.654;2022-11-20T12:35:19;21.55;;;15.50;;
76377;SDS011;65200;49.500;8.654;2022-11-20T12:37:52;24.63;;;16.10;;
76377;SDS011;65200;49.500;8.654;2022-11-20T12:40:24;23.80;;;15.32;;
76377;SDS011;65200;49.500;8.654;2022-11-20T12:42:55;22.92;;;13.98;;
76377;SDS011;65200;49.500;8.654;2022-11-20T12:45:54;26.33;;;18.08;;
76377;SDS011;65200;49.500;8.654;2022-11-20T12:48:28;20.40;;;15.27;;
76377;SDS011;65200;49.500;8.654;2022-11-20T12:51:04;20.30;;;12.95;;
76377;SDS011;65200;49.500;8.654;2022-11-20T12:53:33;18.23;;;14.32;;
76377;SDS011;65200;49.500;8.654;2022-11-20T12:56:05;56.60;;;39.42;;
76377;SDS011;65200;49.500;8.654;2022-11-20T12:58:35;28.58;;;21.00;;
76377;SDS011;65200;49.500;8.654;2022-11-20T13:01:11;21.00;;;16.00;;
76377;SDS011;65200;49.500;8.654;2022-11-20T13:03:59;18.65;;;13.70;;
76377;SDS011;65200;49.500;8.654;2022-11-20T13:06:29;19.20;;;13.27;;
76377;SDS011;65200;49.500;8.654;2022-11-20T13:08:56;18.45;;;12.90;;
76377;SDS011;65200;49.500;8.654;2022-11-20T13:11:24;18.95;;;14.32;;
76377;SDS011;65200;49.500;8.654;2022-11-20T13:13:58;32.38;;;16.90;;
76377;SDS011;65200;49.500;8.654;2022-11-20T13:18:52;26.80;;;17.35;;
76377;SDS011;65200;49.500;8.654;2022-11-20T13:21:21;28.80;;;16.10;;
76377;SDS011;65200;49.500;8.654;2022-11-20T13:23:48;29.85;;;18.88;;
76377;SDS011;65200;49.500;8.654;2022-11-20T13:26:15;32.63;;;19.63;;
76377;SDS011;65200;49.500;8.654;2022-11-20T13:28:42;32.58;;;19.23;;
76377;SDS011;65200;49.500;8.654;2022-11-20T13:31:09;30.20;;;18.85;;
76377;SDS011;65200;49.500;8.654;2022-11-20T13:33:49;16.27;;;12.65;;
76377;SDS011;65200;49.500;8.654;2022-11-20T13:36:22;32.08;;;21.83;;
76377;SDS011;65200;49.500;8.654;2022-11-20T13:38:49;18.00;;;12.25;;
76377;SDS011;65200;49.500;8.654;2022-11-20T13:41:22;13.23;;;11.80;;
76377;SDS011;65200;49.500;8.654;2022-11-20T13:43:57;17.05;;;11.48;;
76377;SDS011;65200;49.500;8.654;2022-11-20T13:46:34;18.10;;;13.15;;
76377;SDS011;65200;49.500;8.654;2022-11-20T13:49:05;31.15;;;22.02;;
76377;SDS011;65200;49.500;8.654;2022-11-20T13:51:34;17.85;;;13.43;;
76377;SDS011;65200;49.500;8.654;2022-11-20T13:54:06;23.25;;;16.25;;
76377;SDS011;65200;49.500;8.654;2022-11-20T13:56:40;15.00;;;11.65;;
76377;SDS011;65200;49.500;8.654;2022-11-20T13:59:10;15.88;;;11.35;;
76377;SDS011;65200;49.500;8.654;2022-11-20T14:01:38;18.48;;;12.40;;
76377;SDS011;65200;49.500;8.654;2022-11-20T14:04:06;13.13;;;10.05;;
76377;SDS011;65200;49.500;8.654;2022-11-20T14:06:39;10.77;;;7.60;;
76377;SDS011;65200;49.500;8.654;2022-11-20T14:09:09;18.52;;;12.40;;
76377;SDS011;65200;49.500;8.654;2022-11-20T14:11:36;8.95;;;4.63;;
76377;SDS011;65200;49.500;8.654;2022-11-20T14:14:13;6.40;;;5.43;;
76377;SDS011;65200;49.500;8.654;2022-11-20T14:16:39;22.27;;;14.95;;
76377;SDS011;65200;49.500;8.654;2022-11-20T14:19:21;7.82;;;5.97;;
76377;SDS011;65200;49.500;8.654;2022-11-20T14:21:51;7.03;;;4.30;;
76377;SDS011;65200;49.500;8.654;2022-11-20T14:24:18;4.45;;;4.05;;
76377;SDS011;65200;49.500;8.654;2022-11-20T14:26:45;5.95;;;5.22;;
76377;SDS011;65200;49.500;8.654;2022-11-20T14:29:11;6.43;;;4.28;;
76377;SDS011;65200;49.500;8.654;2022-11-20T14:31:38;4.97;;;4.03;;
76377;SDS011;65200;49.500;8.654;2022-11-20T14:34:04;6.65;;;5.85;;
76377;SDS011;65200;49.500;8.654;2022-11-20T14:36:30;4.53;;;3.50;;
76377;SDS011;65200;49.500;8.654;2022-11-20T14:38:58;6.50;;;4.07;;